Yerevan FIR

The Yerevan Flight Information Area (UDDD) provides the organization of air traffic in the airspace of Armenia in the VATSIM network.

The FIR includes one international airport (Zvartnots, Yerevan), one co-located airport (Shirak, Gyumri), and one military airport (Erebuni, Yerevan).

Management

Grigori Badalov*

Curator
FIR Instructors
Grigori Badalov (Instructor)
Part of
Caucasus

FIR air traffic controllers

Name Rating Units *
Ashot Hakobyan Controller UDDD_CTR
Grigori Badalov Instructor UDDD_CTR
Ivan Chernov Senior Controller UDDD_CTR
Valeriy Polostyanoy Instructor UDDD_CTR
Davit Karapetyan Student 2 UDYZ_TWR 

FIR airports

ICAO City Title Weather
UDYZ Yerevan Zvartnots International Airport UDYZ 302330Z 00000KT 1600 1300N R09/P2000U BR FEW007 BKN027 06/05 Q1025 NOSIG
UDSG Gyumri Gyumri Shirak Airport UDSG 302330Z VRB01KT 9999 OVC030 03/M01 Q1025 NOSIG
UDYE Yerevan Erebuni Airport